createdAt,value
2023-03-25T00:02:24.793Z,8.10
2023-03-25T00:04:52.940Z,8.10
2023-03-25T00:07:21.267Z,8.10
2023-03-25T00:09:48.205Z,8.10
2023-03-25T00:12:18.344Z,8.10
2023-03-25T00:14:54.266Z,8.10
2023-03-25T00:17:22.698Z,8.10
2023-03-25T00:19:52.215Z,8.10
2023-03-25T00:22:19.101Z,8.10
2023-03-25T00:24:45.907Z,8.10
2023-03-25T00:27:14.215Z,8.00
2023-03-25T00:29:42.181Z,8.10
2023-03-25T00:32:08.739Z,8.10
2023-03-25T00:34:35.362Z,8.00
2023-03-25T00:37:02.356Z,8.00
2023-03-25T00:39:29.126Z,8.00
2023-03-25T00:41:57.103Z,8.10
2023-03-25T00:44:23.712Z,8.10
2023-03-25T00:46:50.249Z,8.10
2023-03-25T00:49:16.840Z,8.10
2023-03-25T00:51:52.853Z,8.10
2023-03-25T00:54:22.199Z,8.10
2023-03-25T00:56:50.435Z,8.00
2023-03-25T00:59:16.997Z,8.00
2023-03-25T01:01:45.990Z,7.90
2023-03-25T01:04:12.617Z,7.80
2023-03-25T01:06:43.920Z,7.70
2023-03-25T01:09:13.745Z,7.70
2023-03-25T01:11:42.588Z,7.60
2023-03-25T01:14:14.189Z,7.50
2023-03-25T01:16:41.198Z,7.60
2023-03-25T01:19:07.836Z,7.50
2023-03-25T01:21:36.429Z,7.50
2023-03-25T01:24:04.286Z,7.40
2023-03-25T01:26:31.113Z,7.40
2023-03-25T01:28:57.796Z,7.40
2023-03-25T01:31:30.250Z,7.40
2023-03-25T01:33:58.064Z,7.40
2023-03-25T02:50:38.557Z,6.20
2023-03-25T02:53:10.766Z,5.90
2023-03-25T02:55:41.332Z,5.80
2023-03-25T02:58:13.001Z,5.70
2023-03-25T03:00:39.886Z,5.70
2023-03-25T03:03:08.177Z,5.60
2023-03-25T03:05:39.567Z,5.60
2023-03-25T03:08:36.578Z,5.60
2023-03-25T03:11:21.433Z,5.50
2023-03-25T03:14:08.337Z,5.50
2023-03-25T03:17:14.514Z,5.50
2023-03-25T03:20:05.284Z,5.40
2023-03-25T03:22:46.815Z,5.40
2023-03-25T03:25:49.124Z,5.40
2023-03-25T03:28:27.603Z,5.40
2023-03-25T03:31:06.764Z,5.40
2023-03-25T03:33:41.325Z,5.40
2023-03-25T03:36:17.469Z,5.40
2023-03-25T03:38:54.396Z,5.40
2023-03-25T03:41:27.073Z,5.30
2023-03-25T03:44:02.669Z,5.40
2023-03-25T03:46:45.809Z,5.40
2023-03-25T03:49:17.083Z,5.50
2023-03-25T03:51:49.406Z,5.60
2023-03-25T03:54:16.009Z,5.60
2023-03-25T03:56:53.384Z,5.60
2023-03-25T03:59:47.470Z,5.60
2023-03-25T04:02:24.722Z,5.70
2023-03-25T04:04:53.811Z,5.70
2023-03-25T04:07:27.662Z,5.80
2023-03-25T04:10:18.560Z,5.80
2023-03-25T04:12:49.788Z,5.80
2023-03-25T04:15:17.487Z,5.80
2023-03-25T04:17:44.378Z,5.80
2023-03-25T04:20:15.336Z,5.90
2023-03-25T04:22:45.934Z,6.00
2023-03-25T04:25:13.962Z,5.90
2023-03-25T04:27:40.965Z,5.90
2023-03-25T04:30:08.763Z,5.80
2023-03-25T04:32:35.403Z,5.80
2023-03-25T04:35:03.619Z,5.80
2023-03-25T04:37:30.200Z,5.70
2023-03-25T04:39:59.906Z,5.60
2023-03-25T04:42:32.885Z,5.50
2023-03-25T04:44:59.939Z,5.40
2023-03-25T04:47:27.247Z,5.40
2023-03-25T04:49:53.851Z,5.50
2023-03-25T04:52:20.881Z,5.40
2023-03-25T04:54:47.571Z,5.40
2023-03-25T04:57:15.261Z,5.30
2023-03-25T04:59:41.970Z,5.30
2023-03-25T05:02:13.305Z,5.30
2023-03-25T05:04:47.401Z,5.40
2023-03-25T05:07:16.294Z,5.40
2023-03-25T05:09:43.350Z,5.50
2023-03-25T05:12:11.220Z,5.50
2023-03-25T05:14:37.871Z,5.60
2023-03-25T05:17:04.402Z,5.70
2023-03-25T05:19:34.787Z,5.80
2023-03-25T05:22:02.952Z,5.80
2023-03-25T05:24:29.586Z,5.90
2023-03-25T05:26:56.138Z,6.00
2023-03-25T05:29:22.673Z,6.10
2023-03-25T05:31:49.630Z,6.10
2023-03-25T05:34:16.953Z,6.10
2023-03-25T05:36:43.686Z,6.10
2023-03-25T05:39:10.929Z,6.30
2023-03-25T05:41:40.876Z,6.30
2023-03-25T05:44:09.901Z,6.30
2023-03-25T05:46:36.817Z,6.30
2023-03-25T05:49:03.602Z,6.30
2023-03-25T05:51:37.212Z,6.40
2023-03-25T05:54:10.630Z,6.50
2023-03-25T05:56:37.334Z,6.60
2023-03-25T05:59:04.872Z,6.60
2023-03-25T06:01:34.119Z,6.70
2023-03-25T06:04:02.380Z,6.70
2023-03-25T06:06:31.814Z,6.70
2023-03-25T06:08:58.696Z,6.70
2023-03-25T06:11:25.603Z,6.70
2023-03-25T06:13:52.431Z,6.80
2023-03-25T06:16:21.332Z,6.90
2023-03-25T06:18:56.417Z,7.00
2023-03-25T06:21:23.852Z,7.10
2023-03-25T06:23:50.554Z,7.20
2023-03-25T06:26:18.014Z,7.30
2023-03-25T06:28:45.875Z,7.50
2023-03-25T06:31:22.494Z,7.60
2023-03-25T06:33:50.547Z,7.70
2023-03-25T06:36:18.795Z,7.60
2023-03-25T06:38:46.717Z,7.50
2023-03-25T06:41:17.570Z,7.50
2023-03-25T06:43:44.121Z,7.70
2023-03-25T06:46:10.827Z,7.80
2023-03-25T06:48:37.459Z,7.90
2023-03-25T06:51:04.219Z,8.20
2023-03-25T06:53:30.889Z,8.20
2023-03-25T06:55:58.300Z,8.20
2023-03-25T06:58:24.965Z,8.20
2023-03-25T07:00:54.886Z,8.10
2023-03-25T07:03:21.444Z,8.10
2023-03-25T07:05:49.177Z,8.20
2023-03-25T07:08:16.062Z,8.50
2023-03-25T07:10:42.894Z,8.70
2023-03-25T07:13:10.585Z,8.80
2023-03-25T07:15:37.113Z,8.90
2023-03-25T07:18:03.794Z,9.00
2023-03-25T07:20:30.482Z,8.90
2023-03-25T07:22:57.095Z,8.90
2023-03-25T07:25:23.706Z,8.70
2023-03-25T07:27:50.362Z,8.50
2023-03-25T07:30:17.354Z,8.50
2023-03-25T07:32:45.684Z,8.50
2023-03-25T07:35:12.384Z,8.50
2023-03-25T07:37:38.968Z,8.60
2023-03-25T07:40:06.329Z,8.80
2023-03-25T07:42:32.938Z,9.00
2023-03-25T07:44:59.460Z,9.20
2023-03-25T07:47:26.001Z,9.40
2023-03-25T07:49:52.577Z,9.50
2023-03-25T07:52:19.125Z,9.60
2023-03-25T07:54:45.726Z,9.70
2023-03-25T07:57:13.188Z,9.70
2023-03-25T07:59:39.803Z,9.90
2023-03-25T08:02:06.668Z,9.90
2023-03-25T08:04:33.185Z,9.90
2023-03-25T08:06:59.711Z,9.80
2023-03-25T08:09:26.238Z,10.00
2023-03-25T08:11:52.817Z,10.20
2023-03-25T08:14:19.344Z,10.20
2023-03-25T08:16:46.572Z,10.30
2023-03-25T08:19:13.155Z,10.50
2023-03-25T08:21:39.689Z,10.60
2023-03-25T08:24:06.927Z,10.60
2023-03-25T08:26:34.333Z,10.70
2023-03-25T08:29:02.464Z,10.90
2023-03-25T08:31:34.115Z,11.20
2023-03-25T08:34:02.058Z,11.10
2023-03-25T08:36:28.792Z,11.40
2023-03-25T08:38:55.808Z,11.40
2023-03-25T08:41:22.458Z,11.10
2023-03-25T08:43:49.942Z,10.80
2023-03-25T08:46:16.644Z,10.30
2023-03-25T08:48:43.885Z,9.90
2023-03-25T08:51:10.552Z,9.50
2023-03-25T08:53:37.113Z,9.40
2023-03-25T08:56:03.831Z,9.30
2023-03-25T08:58:30.424Z,9.20
2023-03-25T09:00:57.831Z,9.20
2023-03-25T09:03:26.911Z,9.10
2023-03-25T09:05:54.255Z,9.00
2023-03-25T09:08:21.160Z,8.80
2023-03-25T09:10:47.991Z,8.60
2023-03-25T09:13:14.652Z,8.70
2023-03-25T09:15:41.267Z,9.20
2023-03-25T09:18:08.092Z,9.50
2023-03-25T09:20:34.685Z,9.80
2023-03-25T09:23:01.315Z,10.00
2023-03-25T09:25:28.724Z,9.90
2023-03-25T09:27:55.451Z,10.20
2023-03-25T09:30:22.143Z,10.20
2023-03-25T09:32:48.703Z,10.00
2023-03-25T09:35:15.350Z,9.80
2023-03-25T09:37:42.895Z,9.90
2023-03-25T09:40:14.195Z,10.30
2023-03-25T09:43:11.228Z,10.50
2023-03-25T09:45:42.968Z,11.10
2023-03-25T09:48:31.221Z,11.70
2023-03-25T09:51:14.840Z,12.30
2023-03-25T09:53:55.354Z,12.50
2023-03-25T09:56:28.612Z,11.70
2023-03-25T09:59:01.388Z,11.30
2023-03-25T10:01:30.920Z,11.20
2023-03-25T10:04:29.199Z,11.30
2023-03-25T10:07:23.245Z,11.30
2023-03-25T10:09:58.998Z,11.40
2023-03-25T10:13:00.048Z,11.60
2023-03-25T10:15:32.593Z,12.10
2023-03-25T10:18:13.008Z,12.40
2023-03-25T10:20:53.484Z,12.40
2023-03-25T10:23:37.937Z,13.10
2023-03-25T10:26:12.080Z,13.30
2023-03-25T10:28:44.114Z,13.20
2023-03-25T10:31:20.550Z,12.80
2023-03-25T10:33:56.458Z,12.90
2023-03-25T10:36:34.033Z,12.40
2023-03-25T10:39:04.460Z,12.10
2023-03-25T10:41:38.049Z,11.50
2023-03-25T10:44:11.391Z,11.70
2023-03-25T10:46:47.925Z,11.70
2023-03-25T10:49:21.995Z,11.70
2023-03-25T10:51:54.476Z,11.60
2023-03-25T10:54:25.262Z,11.80
2023-03-25T10:56:54.767Z,11.90
2023-03-25T10:59:37.023Z,11.80
2023-03-25T11:02:13.608Z,12.40
2023-03-25T11:04:43.336Z,12.80
2023-03-25T11:07:26.175Z,12.60
2023-03-25T11:09:52.776Z,12.50
2023-03-25T11:12:33.238Z,12.30
2023-03-25T11:15:17.011Z,12.20
2023-03-25T11:17:47.965Z,12.20
2023-03-25T11:20:21.522Z,12.20
2023-03-25T11:22:53.206Z,12.40
2023-03-25T11:25:25.635Z,12.80
2023-03-25T11:27:56.284Z,12.60
2023-03-25T11:30:24.763Z,12.30
2023-03-25T11:33:13.716Z,12.10
2023-03-25T11:35:44.449Z,12.00
2023-03-25T11:38:18.768Z,12.10
2023-03-25T11:40:52.556Z,12.10
2023-03-25T11:43:24.865Z,12.10
2023-03-25T11:45:52.069Z,12.50
2023-03-25T11:48:22.318Z,12.80
2023-03-25T11:50:55.323Z,13.40
2023-03-25T11:53:24.018Z,13.60
2023-03-25T11:55:54.558Z,13.20
2023-03-25T11:58:28.720Z,13.20
2023-03-25T12:01:05.322Z,13.10
2023-03-25T12:03:35.104Z,13.10
2023-03-25T12:06:20.485Z,13.50
2023-03-25T12:08:57.979Z,13.40
2023-03-25T12:11:32.526Z,13.30
2023-03-25T12:14:27.592Z,13.00
2023-03-25T12:17:21.267Z,13.00
2023-03-25T12:20:29.124Z,13.00
2023-03-25T12:23:07.596Z,12.60
2023-03-25T12:25:54.481Z,12.40
2023-03-25T12:28:32.710Z,12.70
2023-03-25T12:31:20.312Z,13.00
2023-03-25T12:33:55.281Z,13.00
2023-03-25T12:36:38.709Z,13.00
2023-03-25T12:42:12.789Z,12.10
2023-03-25T12:44:58.905Z,10.80
2023-03-25T12:47:47.921Z,9.90
2023-03-25T12:52:58.473Z,9.90
2023-03-25T12:55:39.668Z,9.90
2023-03-25T12:58:33.641Z,10.00
2023-03-25T13:01:15.568Z,10.50
2023-03-25T13:04:00.724Z,10.90
2023-03-25T13:06:37.708Z,11.20
2023-03-25T13:09:45.592Z,11.40
2023-03-25T13:12:22.656Z,11.60
2023-03-25T13:15:04.949Z,11.60
2023-03-25T13:17:37.327Z,11.70
2023-03-25T13:20:10.607Z,11.90
2023-03-25T13:22:44.674Z,11.60
2023-03-25T13:25:20.572Z,11.60
2023-03-25T13:27:48.813Z,11.50
2023-03-25T13:30:33.491Z,11.40
2023-03-25T13:33:10.582Z,11.40
2023-03-25T13:36:07.373Z,11.70
2023-03-25T13:38:57.145Z,11.80
2023-03-25T13:41:40.954Z,11.90
2023-03-25T13:44:13.129Z,11.90
2023-03-25T13:46:54.749Z,11.80
2023-03-25T13:49:30.280Z,11.90
2023-03-25T13:51:57.948Z,12.20
2023-03-25T13:54:44.329Z,12.10
2023-03-25T13:57:13.946Z,12.40
2023-03-25T14:00:12.229Z,12.60
2023-03-25T14:03:06.020Z,12.80
2023-03-25T14:06:07.202Z,12.50
2023-03-25T14:08:58.766Z,12.10
2023-03-25T14:11:45.770Z,10.60
2023-03-25T14:14:20.280Z,10.60
2023-03-25T14:19:20.839Z,9.20
2023-03-25T14:21:49.961Z,9.40
2023-03-25T14:24:22.554Z,9.80
2023-03-25T14:26:52.520Z,10.30
2023-03-25T14:29:40.154Z,10.70
2023-03-25T14:32:41.125Z,10.90
2023-03-25T14:35:33.101Z,11.20
2023-03-25T14:38:05.924Z,11.40
2023-03-25T14:41:02.064Z,11.70
2023-03-25T14:43:46.054Z,11.70
2023-03-25T14:46:19.245Z,11.80
2023-03-25T14:48:51.723Z,11.90
2023-03-25T14:51:27.231Z,12.00
2023-03-25T14:54:19.045Z,12.10
2023-03-25T14:56:57.736Z,12.00
2023-03-25T14:59:35.970Z,12.10
2023-03-25T15:02:21.056Z,12.30
2023-03-25T15:05:27.266Z,12.40
2023-03-25T15:08:17.406Z,12.50
2023-03-25T15:10:49.512Z,12.60
2023-03-25T15:13:25.856Z,12.70
2023-03-25T15:16:01.624Z,12.30
2023-03-25T15:18:37.437Z,12.50
2023-03-25T15:21:10.059Z,12.50
2023-03-25T15:23:52.703Z,12.60
2023-03-25T15:26:32.602Z,12.60
2023-03-25T15:29:14.734Z,12.90
2023-03-25T15:31:55.927Z,12.80
2023-03-25T15:34:28.032Z,12.80
2023-03-25T15:37:45.767Z,12.70
2023-03-25T15:40:56.464Z,12.70
2023-03-25T15:44:00.563Z,12.80
2023-03-25T15:46:52.985Z,12.80
2023-03-25T15:49:46.871Z,12.80
2023-03-25T15:52:40.992Z,12.70
2023-03-25T15:55:48.083Z,12.80
2023-03-25T15:58:25.995Z,12.80
2023-03-25T16:00:57.039Z,12.80
2023-03-25T16:03:29.004Z,12.80
2023-03-25T16:06:00.354Z,12.70
2023-03-25T16:08:37.909Z,12.60
2023-03-25T16:11:20.537Z,12.50
2023-03-25T16:14:14.341Z,12.50
2023-03-25T16:16:46.958Z,12.30
2023-03-25T16:19:26.735Z,12.30
2023-03-25T16:21:54.463Z,12.20
2023-03-25T16:24:25.439Z,12.10
2023-03-25T16:26:52.675Z,12.00
2023-03-25T16:29:22.813Z,11.80
2023-03-25T16:32:01.398Z,11.70
2023-03-25T16:34:37.756Z,11.50
2023-03-25T16:37:05.938Z,11.40
2023-03-25T16:39:35.171Z,11.40
2023-03-25T16:42:10.580Z,11.30
2023-03-25T16:44:37.870Z,11.40
2023-03-25T17:08:36.029Z,11.20
2023-03-25T17:11:02.735Z,11.30
2023-03-25T17:13:39.170Z,11.30
2023-03-25T17:16:07.733Z,11.20
2023-03-25T17:18:35.810Z,11.10
2023-03-25T17:21:02.497Z,11.10
2023-03-25T17:23:41.378Z,11.00
2023-03-25T17:26:11.050Z,10.90
2023-03-25T17:28:42.859Z,10.90
2023-03-25T17:31:24.965Z,10.80
2023-03-25T17:34:00.923Z,10.80
2023-03-25T17:36:30.192Z,10.60
2023-03-25T17:38:57.767Z,10.60
2023-03-25T17:41:29.968Z,10.50
2023-03-25T17:43:57.455Z,10.40
2023-03-25T17:46:29.396Z,10.40
2023-03-25T17:48:58.089Z,10.30
2023-03-25T17:51:26.565Z,10.20
2023-03-25T17:53:54.149Z,10.20
2023-03-25T17:56:25.096Z,10.10
2023-03-25T17:59:04.430Z,10.10
2023-03-25T18:01:31.546Z,10.00
2023-03-25T18:03:58.377Z,9.90
2023-03-25T18:06:25.263Z,9.80
2023-03-25T18:08:51.976Z,9.90
2023-03-25T18:11:19.255Z,9.80
2023-03-25T18:13:47.924Z,9.80
2023-03-25T18:16:16.565Z,9.70
2023-03-25T18:18:43.599Z,9.80
2023-03-25T18:21:15.629Z,9.70
2023-03-25T18:23:44.552Z,9.70
2023-03-25T18:26:13.362Z,9.80
2023-03-25T18:28:42.801Z,9.90
2023-03-25T18:31:16.946Z,9.90
2023-03-25T18:33:46.068Z,9.90
2023-03-25T18:36:13.052Z,9.80
2023-03-25T18:38:39.721Z,9.80
2023-03-25T18:41:08.258Z,9.70
2023-03-25T18:43:34.937Z,9.70
2023-03-25T18:46:01.575Z,9.70
2023-03-25T18:48:28.226Z,9.70
2023-03-25T18:50:59.175Z,9.60
2023-03-25T18:53:28.860Z,9.50
2023-03-25T18:55:59.901Z,9.50
2023-03-25T18:58:30.901Z,9.50
2023-03-25T19:00:59.287Z,9.40
2023-03-25T19:03:41.705Z,9.40
2023-03-25T19:06:11.511Z,9.40
2023-03-25T19:08:38.303Z,9.40
2023-03-25T19:11:18.976Z,9.20
2023-03-25T19:13:47.542Z,9.20
2023-03-25T19:16:14.148Z,9.20
2023-03-25T19:18:40.761Z,9.10
2023-03-25T19:21:07.402Z,9.10
2023-03-25T19:23:35.210Z,9.20
2023-03-25T19:26:01.934Z,9.20
2023-03-25T19:28:28.547Z,9.30
2023-03-25T19:30:59.834Z,9.40
2023-03-25T19:33:26.574Z,9.60
2023-03-25T19:38:22.776Z,8.80
2023-03-25T19:40:51.538Z,8.70
2023-03-25T19:43:18.781Z,8.80
2023-03-25T19:45:45.359Z,8.80
2023-03-25T19:48:11.971Z,8.80
2023-03-25T19:50:40.730Z,8.80
2023-03-25T19:53:07.733Z,8.90
2023-03-25T19:55:34.605Z,8.80
2023-03-25T19:58:02.228Z,8.80
2023-03-25T20:00:28.965Z,8.80
2023-03-25T20:03:01.736Z,8.70
2023-03-25T20:05:32.244Z,8.80
2023-03-25T20:07:59.502Z,8.70
2023-03-25T20:10:30.242Z,8.60
2023-03-25T20:12:57.866Z,8.60
2023-03-25T20:15:25.631Z,8.60
2023-03-25T20:17:53.460Z,8.50
2023-03-25T20:20:21.353Z,8.40
2023-03-25T20:22:48.598Z,8.40
2023-03-25T20:25:16.338Z,8.30
2023-03-25T20:27:43.827Z,8.30
2023-03-25T20:30:13.285Z,8.30
2023-03-25T20:32:42.138Z,8.30
2023-03-25T20:35:11.238Z,8.40
2023-03-25T20:37:39.828Z,8.30
2023-03-25T20:40:11.052Z,8.40
2023-03-25T20:42:40.002Z,8.40
2023-03-25T20:45:07.206Z,8.40
2023-03-25T20:47:34.003Z,8.50
2023-03-25T20:50:00.797Z,8.50
2023-03-25T20:52:29.002Z,8.50
2023-03-25T20:54:56.670Z,8.60
2023-03-25T20:57:23.722Z,8.60
2023-03-25T20:59:52.726Z,8.60
2023-03-25T21:02:20.519Z,8.70
2023-03-25T21:04:47.173Z,9.10
2023-03-25T21:07:13.893Z,8.90
2023-03-25T21:09:41.087Z,8.90
2023-03-25T21:12:07.768Z,8.90
2023-03-25T21:14:37.322Z,8.90
2023-03-25T21:19:31.171Z,8.90
2023-03-25T21:21:57.750Z,9.00
2023-03-25T21:24:24.303Z,9.00
2023-03-25T21:26:50.888Z,9.00
2023-03-25T21:29:19.127Z,9.00
2023-03-25T21:31:45.779Z,8.80
2023-03-25T21:34:15.608Z,8.70
2023-03-25T21:36:43.279Z,8.60
2023-03-25T21:39:10.533Z,8.60
2023-03-25T21:49:03.860Z,8.00
2023-03-25T21:54:02.419Z,7.90
2023-03-25T21:56:31.261Z,7.90
2023-03-25T21:58:58.333Z,7.90
2023-03-25T22:01:29.478Z,7.90
2023-03-25T22:21:36.876Z,7.80
2023-03-25T22:24:05.730Z,7.80
2023-03-25T22:26:32.788Z,7.80
2023-03-25T22:29:02.370Z,7.80
2023-03-25T22:31:31.345Z,7.70
2023-03-25T22:34:10.719Z,7.60
2023-03-25T22:36:40.863Z,7.60
2023-03-25T22:39:07.773Z,7.50
2023-03-25T22:41:34.346Z,7.40
2023-03-25T22:44:01.229Z,7.30
2023-03-25T22:46:27.854Z,7.20
2023-03-25T22:48:54.506Z,7.20
2023-03-25T22:51:21.376Z,7.20
2023-03-25T22:53:48.394Z,7.20
2023-03-25T22:56:15.233Z,7.20
2023-03-25T22:58:41.894Z,7.10
2023-03-25T23:01:23.619Z,7.10
2023-03-25T23:03:51.377Z,7.10
2023-03-25T23:06:18.095Z,7.20
2023-03-25T23:08:44.674Z,7.10
2023-03-25T23:11:20.276Z,7.00
2023-03-25T23:13:50.250Z,7.10
2023-03-25T23:16:19.697Z,7.10
2023-03-25T23:18:46.976Z,7.10
2023-03-25T23:21:16.649Z,7.10
2023-03-25T23:23:53.045Z,7.10
2023-03-25T23:26:38.866Z,7.00
2023-03-25T23:29:08.615Z,7.00
2023-03-25T23:31:36.700Z,7.00
2023-03-25T23:34:06.221Z,7.00
2023-03-25T23:36:35.996Z,6.90
2023-03-25T23:39:05.720Z,6.90
2023-03-25T23:41:32.451Z,6.80
2023-03-25T23:43:59.217Z,6.70
2023-03-25T23:46:27.081Z,6.60
2023-03-25T23:49:01.844Z,6.50
2023-03-25T23:51:30.808Z,6.40
2023-03-25T23:53:57.392Z,6.50
2023-03-25T23:56:25.195Z,6.10
2023-03-25T23:58:52.778Z,6.10
